GEC4192 EDDP-EBBR
Flight info
| Callsign | GEC4192 |
|---|---|
| Flight time | N/A |
| Altitude | 36000 |
| Route | ORTAG1X ORTAG Q230 KUMER DCT WRB DCT ABAMI Z717 NEREL/N0415F240 T855 AGENI/N0381F180 T855 BATTY |
| Aircraft | MD11/H-SDE1E2E3FGHIJ2J3J4J5M1RWXY/LB1D1 |
Departure
| Time | 2026-05-07 18:14 |
|---|---|
| Airport | Leipzig/Halle Airport (EDDP) |
Arrival
| Time | N/A |
|---|---|
| Airport | Brussels Airport (EBBR) |
| Time | Latitude | Longitude | Altitude | Speed | Heading |
|---|---|---|---|---|---|
| 2026-05-07 17:36 | 51.40936 | 12.24331 | 475 ft | 0 kts | 85° |
| 2026-05-07 17:37 | 51.40885 | 12.24341 | 473 ft | 0 kts | 85° |
| 2026-05-07 17:58 | 51.40884 | 12.24325 | 473 ft | 3 kts | 85° |
| 2026-05-07 17:58 | 51.40883 | 12.24290 | 473 ft | 3 kts | 83° |
| 2026-05-07 17:58 | 51.40878 | 12.24258 | 473 ft | 3 kts | 51° |
| 2026-05-07 17:59 | 51.40866 | 12.24240 | 473 ft | 3 kts | 10° |
| 2026-05-07 17:59 | 51.40843 | 12.24238 | 469 ft | 3 kts | 354° |
| 2026-05-07 17:59 | 51.40829 | 12.24240 | 472 ft | 1 kts | 355° |
| 2026-05-07 17:59 | 51.40828 | 12.24241 | 472 ft | 0 kts | 355° |
| 2026-05-07 18:03 | 51.40831 | 12.24240 | 472 ft | 2 kts | 355° |
| 2026-05-07 18:04 | 51.40865 | 12.24236 | 470 ft | 8 kts | 355° |
| 2026-05-07 18:04 | 51.40933 | 12.24227 | 471 ft | 11 kts | 355° |
| 2026-05-07 18:04 | 51.41017 | 12.24217 | 475 ft | 13 kts | 355° |
| 2026-05-07 18:04 | 51.41071 | 12.24156 | 477 ft | 9 kts | 281° |
| 2026-05-07 18:05 | 51.41069 | 12.24036 | 475 ft | 12 kts | 266° |
| 2026-05-07 18:05 | 51.41062 | 12.23881 | 477 ft | 16 kts | 265° |
| 2026-05-07 18:05 | 51.41053 | 12.23705 | 476 ft | 18 kts | 265° |
| 2026-05-07 18:05 | 51.41043 | 12.23488 | 476 ft | 21 kts | 265° |
| 2026-05-07 18:06 | 51.41041 | 12.23337 | 478 ft | 9 kts | 287° |
| 2026-05-07 18:06 | 51.41090 | 12.23288 | 474 ft | 8 kts | 343° |
| 2026-05-07 18:06 | 51.41115 | 12.23238 | 475 ft | 9 kts | 287° |
| 2026-05-07 18:06 | 51.41111 | 12.23073 | 478 ft | 20 kts | 265° |
| 2026-05-07 18:07 | 51.41101 | 12.22851 | 468 ft | 17 kts | 266° |
| 2026-05-07 18:07 | 51.41091 | 12.22635 | 469 ft | 21 kts | 266° |
| 2026-05-07 18:07 | 51.41083 | 12.22452 | 467 ft | 17 kts | 266° |
| 2026-05-07 18:07 | 51.41074 | 12.22257 | 467 ft | 18 kts | 266° |
| 2026-05-07 18:08 | 51.41063 | 12.22043 | 466 ft | 20 kts | 265° |
| 2026-05-07 18:08 | 51.41054 | 12.21856 | 467 ft | 15 kts | 266° |
| 2026-05-07 18:08 | 51.41046 | 12.21672 | 467 ft | 18 kts | 266° |
| 2026-05-07 18:08 | 51.41036 | 12.21441 | 461 ft | 24 kts | 266° |
| 2026-05-07 18:09 | 51.41022 | 12.21163 | 457 ft | 24 kts | 265° |
| 2026-05-07 18:09 | 51.41011 | 12.20929 | 448 ft | 17 kts | 265° |
| 2026-05-07 18:09 | 51.41002 | 12.20745 | 447 ft | 17 kts | 265° |
| 2026-05-07 18:09 | 51.40993 | 12.20554 | 443 ft | 10 kts | 269° |
| 2026-05-07 18:10 | 51.41018 | 12.20489 | 435 ft | 6 kts | 328° |
| 2026-05-07 18:10 | 51.41037 | 12.20486 | 434 ft | 0 kts | 1° |
| 2026-05-07 18:12 | 51.41061 | 12.20490 | 437 ft | 8 kts | 7° |
| 2026-05-07 18:13 | 51.41117 | 12.20511 | 433 ft | 7 kts | 20° |
| 2026-05-07 18:13 | 51.41155 | 12.20562 | 446 ft | 8 kts | 56° |
| 2026-05-07 18:13 | 51.41172 | 12.20678 | 446 ft | 14 kts | 86° |
| 2026-05-07 18:13 | 51.41190 | 12.21053 | 453 ft | 73 kts | 85° |
| 2026-05-07 18:14 | 51.41255 | 12.22351 | 475 ft | 154 kts | 84° |
| 2026-05-07 18:14 | 51.41334 | 12.24175 | 1108 ft | 167 kts | 85° |
| 2026-05-07 18:14 | 51.41406 | 12.25839 | 2322 ft | 154 kts | 84° |
| 2026-05-07 18:14 | 51.41490 | 12.27549 | 3508 ft | 151 kts | 83° |
| 2026-05-07 18:15 | 51.41572 | 12.29298 | 4636 ft | 157 kts | 83° |
| 2026-05-07 18:15 | 51.41661 | 12.31074 | 5724 ft | 165 kts | 84° |
| 2026-05-07 18:15 | 51.41749 | 12.32939 | 6235 ft | 171 kts | 84° |
| 2026-05-07 18:15 | 51.41837 | 12.34844 | 6623 ft | 171 kts | 84° |
| 2026-05-07 18:16 | 51.41929 | 12.36766 | 7441 ft | 165 kts | 83° |
| 2026-05-07 18:16 | 51.42025 | 12.38437 | 8121 ft | 180 kts | 80° |
| 2026-05-07 18:16 | 51.42442 | 12.40388 | 8410 ft | 182 kts | 57° |
| 2026-05-07 18:16 | 51.43362 | 12.41972 | 8821 ft | 211 kts | 34° |
| 2026-05-07 18:17 | 51.44833 | 12.42791 | 8969 ft | 247 kts | 2° |
| 2026-05-07 18:17 | 51.46449 | 12.42453 | 9801 ft | 253 kts | 348° |
| 2026-05-07 18:17 | 51.48214 | 12.41770 | 10470 ft | 279 kts | 345° |
| 2026-05-07 18:17 | 51.50225 | 12.40927 | 10681 ft | 319 kts | 345° |
| 2026-05-07 18:18 | 51.52395 | 12.39994 | 11809 ft | 326 kts | 344° |
| 2026-05-07 18:18 | 51.54573 | 12.38873 | 12904 ft | 331 kts | 336° |
| 2026-05-07 18:18 | 51.56437 | 12.36945 | 13931 ft | 334 kts | 315° |
| 2026-05-07 18:18 | 51.57794 | 12.33946 | 14698 ft | 343 kts | 296° |
| 2026-05-07 18:19 | 51.58668 | 12.30376 | 15776 ft | 343 kts | 289° |
| 2026-05-07 18:19 | 51.59158 | 12.27952 | 16402 ft | 346 kts | 288° |
| 2026-05-07 18:19 | 51.59931 | 12.23894 | 17335 ft | 351 kts | 288° |
| 2026-05-07 18:19 | 51.60747 | 12.20493 | 17879 ft | 358 kts | 300° |
| 2026-05-07 18:20 | 51.62286 | 12.17364 | 18244 ft | 355 kts | 319° |
| 2026-05-07 18:20 | 51.64258 | 12.15008 | 18786 ft | 357 kts | 328° |
| 2026-05-07 18:20 | 51.66398 | 12.12930 | 19565 ft | 361 kts | 329° |
| 2026-05-07 18:20 | 51.68457 | 12.10624 | 20250 ft | 364 kts | 319° |
| 2026-05-07 18:21 | 51.69942 | 12.07737 | 20835 ft | 370 kts | 301° |
| 2026-05-07 18:21 | 51.70838 | 12.03817 | 21466 ft | 376 kts | 281° |
| 2026-05-07 18:21 | 51.70968 | 11.99543 | 22058 ft | 382 kts | 268° |
| 2026-05-07 18:21 | 51.70718 | 11.95411 | 22642 ft | 388 kts | 264° |
| 2026-05-07 18:22 | 51.70338 | 11.91063 | 23201 ft | 391 kts | 264° |
| 2026-05-07 18:22 | 51.70102 | 11.88179 | 23588 ft | 393 kts | 264° |
| 2026-05-07 18:22 | 51.69696 | 11.82304 | 24395 ft | 398 kts | 266° |
| 2026-05-07 18:22 | 51.69430 | 11.77822 | 24972 ft | 402 kts | 266° |
| 2026-05-07 18:23 | 51.69266 | 11.74831 | 25318 ft | 405 kts | 266° |
| 2026-05-07 18:23 | 51.69010 | 11.70035 | 25901 ft | 409 kts | 267° |
| 2026-05-07 18:23 | 51.68775 | 11.65424 | 26435 ft | 413 kts | 267° |
| 2026-05-07 18:23 | 51.68542 | 11.60787 | 26890 ft | 418 kts | 267° |
| 2026-05-07 18:24 | 51.68334 | 11.56709 | 27212 ft | 419 kts | 267° |
| 2026-05-07 18:24 | 51.68093 | 11.51998 | 27598 ft | 421 kts | 267° |
| 2026-05-07 18:24 | 51.67927 | 11.48757 | 27848 ft | 422 kts | 267° |
| 2026-05-07 18:24 | 51.67683 | 11.44061 | 28051 ft | 425 kts | 266° |
| 2026-05-07 18:25 | 51.67431 | 11.39302 | 28091 ft | 426 kts | 266° |
| 2026-05-07 18:25 | 51.66322 | 11.30438 | 28097 ft | 428 kts | 249° |
| 2026-05-07 18:25 | 51.65057 | 11.26579 | 28101 ft | 429 kts | 236° |
| 2026-05-07 18:26 | 51.63108 | 11.23016 | 28102 ft | 431 kts | 222° |
| 2026-05-07 18:26 | 51.58688 | 11.16570 | 28096 ft | 429 kts | 234° |
| 2026-05-07 18:26 | 51.57210 | 11.12487 | 28091 ft | 426 kts | 249° |
| 2026-05-07 18:27 | 51.56385 | 11.07930 | 28091 ft | 424 kts | 262° |
| 2026-05-07 18:27 | 51.56268 | 11.03418 | 28093 ft | 422 kts | 276° |
| 2026-05-07 18:27 | 51.56553 | 11.00151 | 28096 ft | 421 kts | 282° |
| 2026-05-07 18:28 | 51.57957 | 10.90993 | 28090 ft | 420 kts | 286° |
| 2026-05-07 18:28 | 51.58868 | 10.81753 | 28334 ft | 422 kts | 272° |
| 2026-05-07 18:28 | 51.58871 | 10.77081 | 28839 ft | 425 kts | 269° |
| 2026-05-07 18:29 | 51.58711 | 10.72314 | 29305 ft | 428 kts | 266° |
| 2026-05-07 18:29 | 51.58473 | 10.67515 | 29745 ft | 432 kts | 265° |
| 2026-05-07 18:29 | 51.58218 | 10.62703 | 30204 ft | 435 kts | 265° |
| 2026-05-07 18:29 | 51.57970 | 10.57837 | 30736 ft | 435 kts | 266° |
| 2026-05-07 18:30 | 51.57735 | 10.53047 | 31266 ft | 433 kts | 266° |
| 2026-05-07 18:30 | 51.57508 | 10.48189 | 31768 ft | 433 kts | 266° |
| 2026-05-07 18:30 | 51.57290 | 10.43352 | 32284 ft | 431 kts | 266° |
| 2026-05-07 18:30 | 51.57074 | 10.38606 | 32742 ft | 430 kts | 266° |
| 2026-05-07 18:31 | 51.56858 | 10.33789 | 33183 ft | 429 kts | 266° |
| 2026-05-07 18:31 | 51.56645 | 10.29037 | 33570 ft | 429 kts | 266° |
| 2026-05-07 18:31 | 51.56427 | 10.24222 | 34006 ft | 429 kts | 266° |
| 2026-05-07 18:31 | 51.56208 | 10.19440 | 34406 ft | 429 kts | 266° |
| 2026-05-07 18:32 | 51.55984 | 10.14641 | 34805 ft | 429 kts | 265° |
| 2026-05-07 18:32 | 51.55760 | 10.09929 | 35174 ft | 428 kts | 265° |
| 2026-05-07 18:32 | 51.55533 | 10.05192 | 35544 ft | 426 kts | 265° |
| 2026-05-07 18:32 | 51.55320 | 10.00739 | 35893 ft | 424 kts | 265° |
| 2026-05-07 18:33 | 51.55085 | 9.95882 | 36051 ft | 425 kts | 265° |
| 2026-05-07 18:33 | 51.54618 | 9.86319 | 36079 ft | 428 kts | 265° |
| 2026-05-07 18:34 | 51.54141 | 9.76822 | 36081 ft | 428 kts | 265° |
| 2026-05-07 18:34 | 51.53665 | 9.67274 | 36081 ft | 429 kts | 265° |
| 2026-05-07 18:35 | 51.53187 | 9.57751 | 36081 ft | 430 kts | 265° |
| 2026-05-07 18:35 | 51.52681 | 9.48181 | 36086 ft | 430 kts | 264° |
| 2026-05-07 18:36 | 51.52130 | 9.38697 | 36097 ft | 430 kts | 264° |
| 2026-05-07 18:36 | 51.51585 | 9.29138 | 36100 ft | 431 kts | 264° |